sensor_id;sensor_type;location;lat;lon;timestamp;pressure;altitude;pressure_sealevel;temperature;humidity
50166;BME280;36071;48.140;11.516;2023-09-08T00:02:03;95800.0;;;20.2;58.9
50166;BME280;36071;48.140;11.516;2023-09-08T00:07:02;95810.0;;;20.0;59.2
50166;BME280;36071;48.140;11.516;2023-09-08T00:12:02;95810.0;;;20.0;59.4
50166;BME280;36071;48.140;11.516;2023-09-08T00:17:02;95810.0;;;19.9;59.6
50166;BME280;36071;48.140;11.516;2023-09-08T00:27:02;95800.0;;;19.8;60.2
50166;BME280;36071;48.140;11.516;2023-09-08T00:32:03;95800.0;;;19.8;60.0
50166;BME280;36071;48.140;11.516;2023-09-08T00:37:02;95790.0;;;19.8;60.6
50166;BME280;36071;48.140;11.516;2023-09-08T00:42:02;95800.0;;;19.7;60.7
50166;BME280;36071;48.140;11.516;2023-09-08T00:47:02;95790.0;;;19.6;61.1
50166;BME280;36071;48.140;11.516;2023-09-08T00:52:02;95790.0;;;19.5;61.3
50166;BME280;36071;48.140;11.516;2023-09-08T00:57:02;95800.0;;;19.5;61.6
50166;BME280;36071;48.140;11.516;2023-09-08T01:02:04;95800.0;;;19.3;62.0
50166;BME280;36071;48.140;11.516;2023-09-08T01:07:02;95790.0;;;19.2;61.9
50166;BME280;36071;48.140;11.516;2023-09-08T01:12:03;95800.0;;;19.2;62.4
50166;BME280;36071;48.140;11.516;2023-09-08T01:17:03;95800.0;;;19.1;62.2
50166;BME280;36071;48.140;11.516;2023-09-08T01:22:11;95800.0;;;19.1;62.3
50166;BME280;36071;48.140;11.516;2023-09-08T01:27:02;95790.0;;;19.0;62.8
50166;BME280;36071;48.140;11.516;2023-09-08T01:32:03;95790.0;;;18.9;62.9
50166;BME280;36071;48.140;11.516;2023-09-08T01:37:02;95790.0;;;18.8;63.0
50166;BME280;36071;48.140;11.516;2023-09-08T01:42:02;95780.0;;;18.8;63.0
50166;BME280;36071;48.140;11.516;2023-09-08T01:47:03;95790.0;;;18.8;63.3
50166;BME280;36071;48.140;11.516;2023-09-08T01:52:02;95790.0;;;18.7;63.3
50166;BME280;36071;48.140;11.516;2023-09-08T01:57:02;95790.0;;;18.7;63.5
50166;BME280;36071;48.140;11.516;2023-09-08T02:02:02;95780.0;;;18.6;63.6
50166;BME280;36071;48.140;11.516;2023-09-08T02:07:02;95770.0;;;18.4;64.0
50166;BME280;36071;48.140;11.516;2023-09-08T02:12:02;95780.0;;;18.4;64.3
50166;BME280;36071;48.140;11.516;2023-09-08T02:17:02;95770.0;;;18.3;64.5
50166;BME280;36071;48.140;11.516;2023-09-08T02:22:03;95780.0;;;18.2;64.6
50166;BME280;36071;48.140;11.516;2023-09-08T02:27:02;95770.0;;;18.3;64.7
50166;BME280;36071;48.140;11.516;2023-09-08T02:32:04;95780.0;;;18.3;64.4
50166;BME280;36071;48.140;11.516;2023-09-08T02:37:03;95780.0;;;18.2;64.6
50166;BME280;36071;48.140;11.516;2023-09-08T02:42:02;95790.0;;;18.1;64.3
50166;BME280;36071;48.140;11.516;2023-09-08T02:47:02;95780.0;;;17.9;65.1
50166;BME280;36071;48.140;11.516;2023-09-08T02:52:02;95780.0;;;17.8;65.4
50166;BME280;36071;48.140;11.516;2023-09-08T02:57:03;95780.0;;;17.7;65.7
50166;BME280;36071;48.140;11.516;2023-09-08T03:02:03;95770.0;;;17.6;66.0
50166;BME280;36071;48.140;11.516;2023-09-08T03:07:03;95780.0;;;17.6;66.3
50166;BME280;36071;48.140;11.516;2023-09-08T03:12:04;95780.0;;;17.6;66.6
50166;BME280;36071;48.140;11.516;2023-09-08T03:17:03;95780.0;;;17.6;66.5
50166;BME280;36071;48.140;11.516;2023-09-08T03:22:03;95770.0;;;17.5;66.2
50166;BME280;36071;48.140;11.516;2023-09-08T03:27:03;95780.0;;;17.4;66.3
50166;BME280;36071;48.140;11.516;2023-09-08T03:32:03;95780.0;;;17.3;66.6
50166;BME280;36071;48.140;11.516;2023-09-08T03:37:03;95780.0;;;17.3;66.8
50166;BME280;36071;48.140;11.516;2023-09-08T03:42:02;95780.0;;;17.2;66.8
50166;BME280;36071;48.140;11.516;2023-09-08T03:52:03;95780.0;;;17.2;67.1
50166;BME280;36071;48.140;11.516;2023-09-08T03:57:02;95790.0;;;17.1;67.5
50166;BME280;36071;48.140;11.516;2023-09-08T04:02:02;95780.0;;;17.0;67.4
50166;BME280;36071;48.140;11.516;2023-09-08T04:07:03;95790.0;;;16.9;67.5
50166;BME280;36071;48.140;11.516;2023-09-08T04:17:03;95780.0;;;16.9;67.4
50166;BME280;36071;48.140;11.516;2023-09-08T04:22:03;95780.0;;;16.9;67.9
50166;BME280;36071;48.140;11.516;2023-09-08T04:27:02;95770.0;;;16.9;68.0
50166;BME280;36071;48.140;11.516;2023-09-08T04:32:02;95780.0;;;16.9;68.2
50166;BME280;36071;48.140;11.516;2023-09-08T04:37:03;95770.0;;;16.8;68.3
50166;BME280;36071;48.140;11.516;2023-09-08T04:42:03;95780.0;;;16.8;68.8
50166;BME280;36071;48.140;11.516;2023-09-08T04:47:02;95790.0;;;16.7;69.4
50166;BME280;36071;48.140;11.516;2023-09-08T04:52:06;95800.0;;;16.6;70.5
50166;BME280;36071;48.140;11.516;2023-09-08T04:57:04;95800.0;;;16.5;70.9
50166;BME280;36071;48.140;11.516;2023-09-08T05:02:02;95790.0;;;16.5;70.6
50166;BME280;36071;48.140;11.516;2023-09-08T05:07:02;95790.0;;;16.4;70.9
50166;BME280;36071;48.140;11.516;2023-09-08T05:12:02;95790.0;;;16.5;70.3
50166;BME280;36071;48.140;11.516;2023-09-08T05:17:02;95800.0;;;16.5;71.1
50166;BME280;36071;48.140;11.516;2023-09-08T05:22:02;95800.0;;;16.5;70.9
50166;BME280;36071;48.140;11.516;2023-09-08T05:27:02;95810.0;;;16.6;71.2
50166;BME280;36071;48.140;11.516;2023-09-08T05:32:02;95810.0;;;16.6;71.5
50166;BME280;36071;48.140;11.516;2023-09-08T05:37:03;95810.0;;;16.5;71.7
50166;BME280;36071;48.140;11.516;2023-09-08T05:42:02;95810.0;;;16.5;72.1
50166;BME280;36071;48.140;11.516;2023-09-08T05:47:02;95820.0;;;16.5;72.1
50166;BME280;36071;48.140;11.516;2023-09-08T05:52:02;95820.0;;;16.5;73.5
50166;BME280;36071;48.140;11.516;2023-09-08T05:57:02;95830.0;;;16.5;73.6
50166;BME280;36071;48.140;11.516;2023-09-08T06:02:03;95820.0;;;16.6;75.7
50166;BME280;36071;48.140;11.516;2023-09-08T06:07:03;95840.0;;;16.5;74.1
50166;BME280;36071;48.140;11.516;2023-09-08T06:12:02;95840.0;;;16.7;74.5
50166;BME280;36071;48.140;11.516;2023-09-08T06:17:02;95830.0;;;16.8;73.8
50166;BME280;36071;48.140;11.516;2023-09-08T06:22:02;95830.0;;;17.0;73.3
50166;BME280;36071;48.140;11.516;2023-09-08T06:27:02;95830.0;;;17.1;72.7
50166;BME280;36071;48.140;11.516;2023-09-08T06:32:02;95840.0;;;17.3;72.6
50166;BME280;36071;48.140;11.516;2023-09-08T06:37:02;95830.0;;;17.4;71.6
50166;BME280;36071;48.140;11.516;2023-09-08T06:42:02;95830.0;;;17.5;70.8
50166;BME280;36071;48.140;11.516;2023-09-08T06:47:02;95840.0;;;17.8;71.6
50166;BME280;36071;48.140;11.516;2023-09-08T06:52:02;95840.0;;;18.0;71.1
50166;BME280;36071;48.140;11.516;2023-09-08T06:57:02;95850.0;;;18.4;70.5
50166;BME280;36071;48.140;11.516;2023-09-08T07:02:02;95840.0;;;18.8;68.7
50166;BME280;36071;48.140;11.516;2023-09-08T07:07:02;95840.0;;;19.1;67.7
50166;BME280;36071;48.140;11.516;2023-09-08T07:12:02;95840.0;;;19.4;67.0
50166;BME280;36071;48.140;11.516;2023-09-08T07:17:02;95840.0;;;19.8;65.5
50166;BME280;36071;48.140;11.516;2023-09-08T07:22:02;95840.0;;;20.2;63.7
50166;BME280;36071;48.140;11.516;2023-09-08T07:27:02;95840.0;;;20.6;62.2
50166;BME280;36071;48.140;11.516;2023-09-08T07:32:02;95830.0;;;21.0;60.5
50166;BME280;36071;48.140;11.516;2023-09-08T07:37:02;95830.0;;;21.4;59.4
50166;BME280;36071;48.140;11.516;2023-09-08T07:42:02;95840.0;;;21.8;57.8
50166;BME280;36071;48.140;11.516;2023-09-08T07:47:02;95830.0;;;22.1;56.5
50166;BME280;36071;48.140;11.516;2023-09-08T07:52:02;95840.0;;;22.5;55.6
50166;BME280;36071;48.140;11.516;2023-09-08T07:57:02;95830.0;;;22.8;54.7
50166;BME280;36071;48.140;11.516;2023-09-08T08:02:02;95850.0;;;23.1;54.2
50166;BME280;36071;48.140;11.516;2023-09-08T08:07:02;95840.0;;;23.5;54.0
50166;BME280;36071;48.140;11.516;2023-09-08T08:12:02;95840.0;;;23.8;52.3
50166;BME280;36071;48.140;11.516;2023-09-08T08:17:02;95840.0;;;24.2;51.3
50166;BME280;36071;48.140;11.516;2023-09-08T08:22:02;95830.0;;;24.5;50.7
50166;BME280;36071;48.140;11.516;2023-09-08T08:27:02;95840.0;;;24.8;49.7
50166;BME280;36071;48.140;11.516;2023-09-08T08:32:02;95830.0;;;25.0;49.8
50166;BME280;36071;48.140;11.516;2023-09-08T08:37:02;95840.0;;;25.4;48.5
50166;BME280;36071;48.140;11.516;2023-09-08T08:42:06;95830.0;;;25.6;47.6
50166;BME280;36071;48.140;11.516;2023-09-08T08:47:02;95820.0;;;25.8;47.2
50166;BME280;36071;48.140;11.516;2023-09-08T08:52:02;95820.0;;;25.9;46.5
50166;BME280;36071;48.140;11.516;2023-09-08T08:57:02;95830.0;;;26.2;47.0
50166;BME280;36071;48.140;11.516;2023-09-08T09:02:02;95810.0;;;26.4;46.7
50166;BME280;36071;48.140;11.516;2023-09-08T09:07:02;95820.0;;;26.7;46.0
50166;BME280;36071;48.140;11.516;2023-09-08T09:12:02;95810.0;;;26.8;45.1
50166;BME280;36071;48.140;11.516;2023-09-08T09:17:02;95820.0;;;27.0;44.7
50166;BME280;36071;48.140;11.516;2023-09-08T09:22:02;95810.0;;;27.1;44.3
50166;BME280;36071;48.140;11.516;2023-09-08T09:27:02;95810.0;;;27.5;43.8
50166;BME280;36071;48.140;11.516;2023-09-08T09:32:02;95810.0;;;27.9;43.7
50166;BME280;36071;48.140;11.516;2023-09-08T09:37:02;95800.0;;;28.1;42.3
50166;BME280;36071;48.140;11.516;2023-09-08T09:42:02;95800.0;;;28.3;42.4
50166;BME280;36071;48.140;11.516;2023-09-08T09:47:02;95800.0;;;28.7;42.3
50166;BME280;36071;48.140;11.516;2023-09-08T09:52:02;95790.0;;;29.1;40.9
50166;BME280;36071;48.140;11.516;2023-09-08T09:57:02;95770.0;;;29.2;40.3
50166;BME280;36071;48.140;11.516;2023-09-08T10:02:02;95790.0;;;29.6;41.0
50166;BME280;36071;48.140;11.516;2023-09-08T10:07:02;95780.0;;;29.8;38.8
50166;BME280;36071;48.140;11.516;2023-09-08T10:12:03;95780.0;;;30.0;38.7
50166;BME280;36071;48.140;11.516;2023-09-08T10:17:02;95780.0;;;30.4;38.2
50166;BME280;36071;48.140;11.516;2023-09-08T10:22:02;95760.0;;;30.6;37.3
50166;BME280;36071;48.140;11.516;2023-09-08T10:27:04;95770.0;;;30.7;37.0
50166;BME280;36071;48.140;11.516;2023-09-08T10:32:02;95760.0;;;31.1;37.4
50166;BME280;36071;48.140;11.516;2023-09-08T10:37:02;95770.0;;;31.5;37.1
50166;BME280;36071;48.140;11.516;2023-09-08T10:42:20;95770.0;;;31.8;36.2
50166;BME280;36071;48.140;11.516;2023-09-08T10:47:02;95770.0;;;31.7;41.5
50166;BME280;36071;48.140;11.516;2023-09-08T10:52:05;95760.0;;;31.5;44.6
50166;BME280;36071;48.140;11.516;2023-09-08T10:57:06;95760.0;;;31.3;41.1
50166;BME280;36071;48.140;11.516;2023-09-08T11:02:03;95760.0;;;31.3;45.7
50166;BME280;36071;48.140;11.516;2023-09-08T11:07:02;95760.0;;;31.3;39.9
50166;BME280;36071;48.140;11.516;2023-09-08T11:12:02;95750.0;;;31.1;38.3
50166;BME280;36071;48.140;11.516;2023-09-08T11:17:02;95760.0;;;31.1;39.5
50166;BME280;36071;48.140;11.516;2023-09-08T11:22:02;95760.0;;;31.3;42.3
50166;BME280;36071;48.140;11.516;2023-09-08T11:27:02;95760.0;;;31.4;37.5
50166;BME280;36071;48.140;11.516;2023-09-08T11:32:02;95770.0;;;31.7;41.7
50166;BME280;36071;48.140;11.516;2023-09-08T11:37:05;95760.0;;;31.7;38.7
50166;BME280;36071;48.140;11.516;2023-09-08T11:42:02;95760.0;;;31.5;37.1
50166;BME280;36071;48.140;11.516;2023-09-08T11:47:02;95760.0;;;31.6;37.8
50166;BME280;36071;48.140;11.516;2023-09-08T11:52:02;95760.0;;;31.8;38.1
50166;BME280;36071;48.140;11.516;2023-09-08T11:57:03;95760.0;;;31.8;36.9
50166;BME280;36071;48.140;11.516;2023-09-08T12:02:02;95740.0;;;32.2;38.2
50166;BME280;36071;48.140;11.516;2023-09-08T12:07:02;95750.0;;;32.2;35.9
50166;BME280;36071;48.140;11.516;2023-09-08T12:12:02;95740.0;;;32.5;36.3
50166;BME280;36071;48.140;11.516;2023-09-08T12:17:05;95740.0;;;32.7;35.9
50166;BME280;36071;48.140;11.516;2023-09-08T12:22:03;95740.0;;;32.7;36.5
50166;BME280;36071;48.140;11.516;2023-09-08T12:27:02;95740.0;;;33.0;35.8
50166;BME280;36071;48.140;11.516;2023-09-08T12:32:02;95740.0;;;33.0;36.4
50166;BME280;36071;48.140;11.516;2023-09-08T12:37:02;95740.0;;;33.0;35.9
50166;BME280;36071;48.140;11.516;2023-09-08T12:42:02;95740.0;;;33.0;35.6
50166;BME280;36071;48.140;11.516;2023-09-08T12:47:02;95720.0;;;33.1;35.4
50166;BME280;36071;48.140;11.516;2023-09-08T12:52:02;95730.0;;;33.3;34.6
50166;BME280;36071;48.140;11.516;2023-09-08T12:57:02;95730.0;;;33.2;35.4
50166;BME280;36071;48.140;11.516;2023-09-08T13:02:02;95730.0;;;33.3;35.2
50166;BME280;36071;48.140;11.516;2023-09-08T13:07:02;95730.0;;;33.2;34.9
50166;BME280;36071;48.140;11.516;2023-09-08T13:12:02;95730.0;;;32.8;35.4
50166;BME280;36071;48.140;11.516;2023-09-08T13:17:02;95730.0;;;32.9;35.2
50166;BME280;36071;48.140;11.516;2023-09-08T13:22:02;95720.0;;;33.1;35.5
50166;BME280;36071;48.140;11.516;2023-09-08T13:27:02;95720.0;;;33.0;35.0
50166;BME280;36071;48.140;11.516;2023-09-08T13:32:03;95720.0;;;32.9;36.4
50166;BME280;36071;48.140;11.516;2023-09-08T13:37:02;95710.0;;;32.7;35.5
50166;BME280;36071;48.140;11.516;2023-09-08T13:42:02;95710.0;;;32.7;36.1
50166;BME280;36071;48.140;11.516;2023-09-08T13:47:02;95700.0;;;32.7;36.2
50166;BME280;36071;48.140;11.516;2023-09-08T13:52:03;95710.0;;;32.8;35.9
50166;BME280;36071;48.140;11.516;2023-09-08T13:57:02;95700.0;;;32.7;35.5
50166;BME280;36071;48.140;11.516;2023-09-08T14:02:02;95690.0;;;32.7;35.6
50166;BME280;36071;48.140;11.516;2023-09-08T14:07:02;95690.0;;;32.7;36.2
50166;BME280;36071;48.140;11.516;2023-09-08T14:12:02;95690.0;;;32.5;35.9
50166;BME280;36071;48.140;11.516;2023-09-08T14:17:02;95690.0;;;32.4;36.2
50166;BME280;36071;48.140;11.516;2023-09-08T14:22:02;95680.0;;;32.4;35.5
50166;BME280;36071;48.140;11.516;2023-09-08T14:27:02;95680.0;;;32.3;36.8
50166;BME280;36071;48.140;11.516;2023-09-08T14:32:02;95680.0;;;32.2;36.1
50166;BME280;36071;48.140;11.516;2023-09-08T14:37:02;95680.0;;;32.3;35.4
50166;BME280;36071;48.140;11.516;2023-09-08T14:42:02;95680.0;;;32.4;35.1
50166;BME280;36071;48.140;11.516;2023-09-08T14:47:02;95680.0;;;32.4;36.2
50166;BME280;36071;48.140;11.516;2023-09-08T14:52:02;95670.0;;;32.2;35.9
50166;BME280;36071;48.140;11.516;2023-09-08T14:57:02;95680.0;;;32.3;36.4
50166;BME280;36071;48.140;11.516;2023-09-08T15:02:02;95670.0;;;32.3;35.9
50166;BME280;36071;48.140;11.516;2023-09-08T15:07:02;95670.0;;;32.3;36.2
50166;BME280;36071;48.140;11.516;2023-09-08T15:12:02;95680.0;;;32.3;36.2
50166;BME280;36071;48.140;11.516;2023-09-08T15:17:02;95670.0;;;32.2;35.4
50166;BME280;36071;48.140;11.516;2023-09-08T15:22:02;95680.0;;;32.2;35.1
50166;BME280;36071;48.140;11.516;2023-09-08T15:27:02;95670.0;;;32.1;35.9
50166;BME280;36071;48.140;11.516;2023-09-08T15:32:02;95670.0;;;32.0;35.8
50166;BME280;36071;48.140;11.516;2023-09-08T15:37:02;95670.0;;;32.0;35.9
50166;BME280;36071;48.140;11.516;2023-09-08T15:42:02;95670.0;;;31.8;36.9
50166;BME280;36071;48.140;11.516;2023-09-08T15:47:02;95680.0;;;31.8;37.4
50166;BME280;36071;48.140;11.516;2023-09-08T15:52:02;95670.0;;;31.6;37.7
50166;BME280;36071;48.140;11.516;2023-09-08T15:57:02;95670.0;;;31.6;38.0
50166;BME280;36071;48.140;11.516;2023-09-08T16:02:03;95670.0;;;31.5;38.3
50166;BME280;36071;48.140;11.516;2023-09-08T16:07:02;95670.0;;;31.2;38.6
50166;BME280;36071;48.140;11.516;2023-09-08T16:12:02;95660.0;;;31.1;38.6
50166;BME280;36071;48.140;11.516;2023-09-08T16:17:02;95660.0;;;31.0;38.8
50166;BME280;36071;48.140;11.516;2023-09-08T16:22:02;95660.0;;;30.9;39.0
50166;BME280;36071;48.140;11.516;2023-09-08T16:27:02;95660.0;;;30.7;39.5
50166;BME280;36071;48.140;11.516;2023-09-08T16:32:02;95660.0;;;30.6;39.8
50166;BME280;36071;48.140;11.516;2023-09-08T16:37:02;95670.0;;;30.4;40.2
50166;BME280;36071;48.140;11.516;2023-09-08T16:42:02;95670.0;;;30.3;40.6
50166;BME280;36071;48.140;11.516;2023-09-08T16:47:02;95660.0;;;30.1;41.6
50166;BME280;36071;48.140;11.516;2023-09-08T16:52:02;95660.0;;;29.9;42.1
50166;BME280;36071;48.140;11.516;2023-09-08T16:57:02;95670.0;;;29.7;42.6
50166;BME280;36071;48.140;11.516;2023-09-08T17:02:02;95670.0;;;29.6;42.9
50166;BME280;36071;48.140;11.516;2023-09-08T17:07:02;95680.0;;;29.5;43.1
50166;BME280;36071;48.140;11.516;2023-09-08T17:12:02;95680.0;;;29.4;43.5
50166;BME280;36071;48.140;11.516;2023-09-08T17:17:02;95670.0;;;29.3;43.8
50166;BME280;36071;48.140;11.516;2023-09-08T17:22:02;95670.0;;;29.1;44.0
50166;BME280;36071;48.140;11.516;2023-09-08T17:27:02;95680.0;;;29.1;44.3
50166;BME280;36071;48.140;11.516;2023-09-08T17:32:02;95690.0;;;28.9;44.5
50166;BME280;36071;48.140;11.516;2023-09-08T17:37:02;95690.0;;;28.8;44.6
50166;BME280;36071;48.140;11.516;2023-09-08T17:42:02;95680.0;;;28.7;44.8
50166;BME280;36071;48.140;11.516;2023-09-08T17:47:02;95680.0;;;28.5;45.5
50166;BME280;36071;48.140;11.516;2023-09-08T17:52:04;95700.0;;;28.4;46.0
50166;BME280;36071;48.140;11.516;2023-09-08T17:57:02;95710.0;;;28.2;46.5
50166;BME280;36071;48.140;11.516;2023-09-08T18:02:02;95700.0;;;28.1;46.8
50166;BME280;36071;48.140;11.516;2023-09-08T18:07:02;95700.0;;;28.1;47.2
50166;BME280;36071;48.140;11.516;2023-09-08T18:12:02;95710.0;;;28.0;47.5
50166;BME280;36071;48.140;11.516;2023-09-08T18:17:02;95700.0;;;28.0;47.5
50166;BME280;36071;48.140;11.516;2023-09-08T18:22:02;95710.0;;;27.9;47.9
50166;BME280;36071;48.140;11.516;2023-09-08T18:27:02;95710.0;;;27.7;48.2
50166;BME280;36071;48.140;11.516;2023-09-08T18:37:02;95700.0;;;27.5;48.9
50166;BME280;36071;48.140;11.516;2023-09-08T18:42:02;95710.0;;;27.4;49.0
50166;BME280;36071;48.140;11.516;2023-09-08T18:47:02;95700.0;;;27.3;49.3
50166;BME280;36071;48.140;11.516;2023-09-08T18:52:02;95710.0;;;27.2;49.5
50166;BME280;36071;48.140;11.516;2023-09-08T18:57:03;95710.0;;;27.1;49.5
50166;BME280;36071;48.140;11.516;2023-09-08T19:02:02;95710.0;;;27.0;49.9
50166;BME280;36071;48.140;11.516;2023-09-08T19:07:02;95710.0;;;26.9;50.0
50166;BME280;36071;48.140;11.516;2023-09-08T19:12:02;95700.0;;;26.8;50.0
50166;BME280;36071;48.140;11.516;2023-09-08T19:17:02;95710.0;;;26.5;50.3
50166;BME280;36071;48.140;11.516;2023-09-08T19:22:02;95710.0;;;26.4;50.2
50166;BME280;36071;48.140;11.516;2023-09-08T19:27:02;95720.0;;;26.4;49.7
50166;BME280;36071;48.140;11.516;2023-09-08T19:32:02;95710.0;;;26.1;50.3
50166;BME280;36071;48.140;11.516;2023-09-08T19:37:02;95710.0;;;26.0;50.4
50166;BME280;36071;48.140;11.516;2023-09-08T19:42:02;95710.0;;;26.0;50.5
50166;BME280;36071;48.140;11.516;2023-09-08T19:52:02;95710.0;;;25.9;50.9
50166;BME280;36071;48.140;11.516;2023-09-08T19:57:02;95720.0;;;25.8;50.8
50166;BME280;36071;48.140;11.516;2023-09-08T20:02:02;95710.0;;;25.7;50.9
50166;BME280;36071;48.140;11.516;2023-09-08T20:07:02;95720.0;;;25.6;51.1
50166;BME280;36071;48.140;11.516;2023-09-08T20:12:02;95710.0;;;25.5;51.3
50166;BME280;36071;48.140;11.516;2023-09-08T20:17:02;95720.0;;;25.3;51.8
50166;BME280;36071;48.140;11.516;2023-09-08T20:22:02;95720.0;;;25.3;51.7
50166;BME280;36071;48.140;11.516;2023-09-08T20:27:02;95720.0;;;25.2;51.9
50166;BME280;36071;48.140;11.516;2023-09-08T20:32:02;95700.0;;;25.2;52.0
50166;BME280;36071;48.140;11.516;2023-09-08T20:37:02;95710.0;;;25.1;52.5
50166;BME280;36071;48.140;11.516;2023-09-08T20:42:02;95710.0;;;25.0;52.7
50166;BME280;36071;48.140;11.516;2023-09-08T20:47:02;95720.0;;;25.0;53.1
50166;BME280;36071;48.140;11.516;2023-09-08T20:52:03;95710.0;;;24.9;53.2
50166;BME280;36071;48.140;11.516;2023-09-08T20:57:02;95710.0;;;24.8;53.5
50166;BME280;36071;48.140;11.516;2023-09-08T21:02:02;95710.0;;;24.7;53.8
50166;BME280;36071;48.140;11.516;2023-09-08T21:07:02;95710.0;;;24.7;53.9
50166;BME280;36071;48.140;11.516;2023-09-08T21:12:02;95720.0;;;24.6;54.2
50166;BME280;36071;48.140;11.516;2023-09-08T21:17:02;95710.0;;;24.6;54.4
50166;BME280;36071;48.140;11.516;2023-09-08T21:22:02;95720.0;;;24.5;54.6
50166;BME280;36071;48.140;11.516;2023-09-08T21:27:02;95710.0;;;24.5;54.7
50166;BME280;36071;48.140;11.516;2023-09-08T21:32:02;95720.0;;;24.4;55.0
50166;BME280;36071;48.140;11.516;2023-09-08T21:37:02;95720.0;;;24.3;55.2
50166;BME280;36071;48.140;11.516;2023-09-08T21:42:02;95720.0;;;24.2;55.3
50166;BME280;36071;48.140;11.516;2023-09-08T22:02:02;95720.0;;;24.0;55.7
50166;BME280;36071;48.140;11.516;2023-09-08T22:07:02;95720.0;;;24.0;55.6
50166;BME280;36071;48.140;11.516;2023-09-08T22:12:02;95710.0;;;23.9;56.1
50166;BME280;36071;48.140;11.516;2023-09-08T22:17:03;95710.0;;;23.8;56.3
50166;BME280;36071;48.140;11.516;2023-09-08T22:22:02;95710.0;;;23.7;56.5
50166;BME280;36071;48.140;11.516;2023-09-08T22:27:02;95700.0;;;23.6;56.7
50166;BME280;36071;48.140;11.516;2023-09-08T22:32:02;95710.0;;;23.6;56.7
50166;BME280;36071;48.140;11.516;2023-09-08T22:37:02;95710.0;;;23.5;57.1
50166;BME280;36071;48.140;11.516;2023-09-08T22:42:02;95710.0;;;23.4;57.5
50166;BME280;36071;48.140;11.516;2023-09-08T22:47:02;95710.0;;;23.3;57.6
50166;BME280;36071;48.140;11.516;2023-09-08T22:52:02;95700.0;;;23.2;57.9
50166;BME280;36071;48.140;11.516;2023-09-08T22:57:02;95680.0;;;23.0;57.8
50166;BME280;36071;48.140;11.516;2023-09-08T23:02:02;95700.0;;;23.1;58.3
50166;BME280;36071;48.140;11.516;2023-09-08T23:07:02;95700.0;;;23.0;59.1
50166;BME280;36071;48.140;11.516;2023-09-08T23:12:02;95710.0;;;22.9;59.4
50166;BME280;36071;48.140;11.516;2023-09-08T23:17:02;95700.0;;;22.8;59.5
50166;BME280;36071;48.140;11.516;2023-09-08T23:22:02;95700.0;;;22.8;60.0
50166;BME280;36071;48.140;11.516;2023-09-08T23:27:02;95700.0;;;22.7;60.5
50166;BME280;36071;48.140;11.516;2023-09-08T23:32:04;95690.0;;;22.6;61.2
50166;BME280;36071;48.140;11.516;2023-09-08T23:37:02;95690.0;;;22.5;61.6
50166;BME280;36071;48.140;11.516;2023-09-08T23:42:02;95690.0;;;22.5;62.0
50166;BME280;36071;48.140;11.516;2023-09-08T23:47:04;95690.0;;;22.4;62.4
50166;BME280;36071;48.140;11.516;2023-09-08T23:52:02;95680.0;;;22.3;62.5
50166;BME280;36071;48.140;11.516;2023-09-08T23:57:02;95680.0;;;22.2;63.1
